Time;durP1;ratioP1;P1;durP2;ratioP2;P2;SDS_P1;SDS_P2;PMS_P1;PMS_P2;Temp;Humidity;BMP_temperature;BMP_pressure;BME280_temperature;BME280_humidity;BME280_pressure;Samples;Min_cycle;Max_cycle;Signal;HPM_P1;HPM_P2
2022/01/06 00:01:55;;;;;;;16.23;3.00;;;;;;;;;;4997195;28;92312;-71
2022/01/06 00:04:21;;;;;;;29.42;3.10;;;;;;;;;;4995623;28;94759;-71
2022/01/06 00:06:48;;;;;;;20.85;5.40;;;;;;;;;;4996946;28;95759;-71
2022/01/06 00:09:17;;;;;;;21.02;3.40;;;;;;;;;;5000046;28;93605;-72
2022/01/06 00:11:44;;;;;;;11.30;2.45;;;;;;;;;;4996826;28;93550;-71
2022/01/06 00:14:21;;;;;;;22.67;3.42;;;;;;;;;;4996459;28;95799;-71
2022/01/06 00:24:48;;;;;;;10.48;3.17;;;;;;;;;;4996808;28;92254;-71
2022/01/06 00:27:15;;;;;;;21.70;2.90;;;;;;;;;;4997075;28;93562;-71
2022/01/06 00:29:42;;;;;;;16.92;2.83;;;;;;;;;;4994875;28;96783;-71
2022/01/06 00:32:10;;;;;;;14.18;2.85;;;;;;;;;;4999999;28;92233;-71
2022/01/06 00:34:36;;;;;;;14.93;2.78;;;;;;;;;;4996495;28;92909;-73
2022/01/06 00:37:03;;;;;;;16.85;3.53;;;;;;;;;;4997473;28;92348;-71
2022/01/06 00:39:29;;;;;;;19.55;3.90;;;;;;;;;;5000434;28;93725;-71
2022/01/06 00:41:58;;;;;;;22.60;3.15;;;;;;;;;;5000108;28;93735;-72
2022/01/06 00:44:24;;;;;;;16.85;2.95;;;;;;;;;;5000259;28;92335;-72
2022/01/06 00:46:51;;;;;;;16.35;2.42;;;;;;;;;;5004057;28;93275;-71
2022/01/06 00:49:18;;;;;;;10.18;2.03;;;;;;;;;;5005482;28;93622;-71
2022/01/06 00:51:44;;;;;;;16.08;2.78;;;;;;;;;;5004099;28;92361;-71
2022/01/06 00:54:10;;;;;;;14.25;2.53;;;;;;;;;;5006491;28;94726;-70
2022/01/06 00:56:37;;;;;;;25.25;3.60;;;;;;;;;;5001337;28;92305;-72
2022/01/06 00:59:03;;;;;;;18.02;2.83;;;;;;;;;;5000232;28;93648;-71
2022/01/06 01:01:30;;;;;;;17.50;2.75;;;;;;;;;;4999723;28;93546;-71
2022/01/06 01:03:57;;;;;;;16.80;2.80;;;;;;;;;;4999470;28;92697;-71
2022/01/06 01:06:23;;;;;;;15.23;2.97;;;;;;;;;;4999842;28;93404;-71
2022/01/06 01:08:50;;;;;;;21.48;3.83;;;;;;;;;;4999504;28;93094;-71
2022/01/06 01:11:16;;;;;;;23.10;2.60;;;;;;;;;;5000295;28;91582;-70
2022/01/06 01:13:56;;;;;;;13.30;2.90;;;;;;;;;;4999778;28;92273;-71
2022/01/06 01:16:27;;;;;;;12.25;2.45;;;;;;;;;;5001933;28;93502;-71
2022/01/06 01:18:56;;;;;;;19.92;2.47;;;;;;;;;;4998137;28;94786;-71
2022/01/06 01:21:26;;;;;;;12.27;2.45;;;;;;;;;;4999363;28;93592;-70
2022/01/06 01:23:56;;;;;;;17.20;2.50;;;;;;;;;;4999384;28;92383;-71
2022/01/06 01:26:23;;;;;;;13.80;2.40;;;;;;;;;;4998747;28;93196;-71
2022/01/06 01:28:50;;;;;;;19.20;2.53;;;;;;;;;;4998885;28;93462;-71
2022/01/06 01:33:44;;;;;;;21.30;3.45;;;;;;;;;;5000323;28;93515;-73
2022/01/06 01:36:11;;;;;;;12.43;2.53;;;;;;;;;;5002565;28;92842;-70
2022/01/06 01:38:37;;;;;;;22.08;2.40;;;;;;;;;;4999162;28;92615;-71
2022/01/06 01:41:04;;;;;;;17.13;3.17;;;;;;;;;;4999182;28;93731;-70
2022/01/06 01:43:31;;;;;;;16.52;3.17;;;;;;;;;;4997299;28;94690;-71
2022/01/06 01:45:59;;;;;;;10.95;2.08;;;;;;;;;;4998923;28;94984;-71
2022/01/06 01:48:32;;;;;;;13.27;4.15;;;;;;;;;;4998885;28;93634;-71
2022/01/06 01:50:59;;;;;;;19.50;3.63;;;;;;;;;;4999075;28;92451;-71
2022/01/06 01:53:25;;;;;;;16.67;2.70;;;;;;;;;;4999283;28;93616;-71
2022/01/06 01:55:52;;;;;;;12.30;2.05;;;;;;;;;;4998976;28;93211;-71
2022/01/06 01:58:19;;;;;;;17.02;2.60;;;;;;;;;;5001590;28;93395;-71
2022/01/06 02:00:46;;;;;;;11.95;2.13;;;;;;;;;;4999259;28;93429;-71
2022/01/06 02:03:12;;;;;;;18.27;1.95;;;;;;;;;;4998827;28;92266;-71
2022/01/06 02:05:39;;;;;;;22.42;2.30;;;;;;;;;;4998810;28;93361;-71
2022/01/06 02:08:05;;;;;;;10.57;1.73;;;;;;;;;;4997011;28;95939;-71
2022/01/06 02:10:32;;;;;;;14.77;2.28;;;;;;;;;;4998861;28;92361;-71
2022/01/06 02:13:01;;;;;;;21.50;2.13;;;;;;;;;;4998433;28;92460;-71
2022/01/06 02:15:28;;;;;;;18.70;2.25;;;;;;;;;;4998653;28;93596;-71
2022/01/06 02:17:54;;;;;;;9.45;2.03;;;;;;;;;;4997172;28;92445;-70
2022/01/06 02:20:22;;;;;;;21.88;2.45;;;;;;;;;;5001668;28;93725;-71
2022/01/06 02:22:49;;;;;;;16.33;2.72;;;;;;;;;;4998684;28;92171;-71
2022/01/06 02:25:18;;;;;;;13.20;2.92;;;;;;;;;;4998687;28;93403;-70
2022/01/06 02:27:47;;;;;;;25.00;2.55;;;;;;;;;;4997427;28;93549;-70
2022/01/06 02:30:14;;;;;;;14.55;2.17;;;;;;;;;;4998526;28;92356;-71
2022/01/06 02:32:40;;;;;;;17.50;1.83;;;;;;;;;;4996783;28;94573;-71
2022/01/06 02:35:08;;;;;;;16.88;2.42;;;;;;;;;;4998461;28;93713;-71
2022/01/06 02:37:35;;;;;;;16.35;2.30;;;;;;;;;;4998367;28;92183;-71
2022/01/06 02:40:04;;;;;;;15.20;2.10;;;;;;;;;;4997762;28;93634;-70
2022/01/06 02:42:32;;;;;;;15.50;2.08;;;;;;;;;;5001311;28;93620;-70
2022/01/06 02:44:58;;;;;;;15.52;2.35;;;;;;;;;;4998068;28;92936;-71
2022/01/06 02:47:24;;;;;;;19.73;3.03;;;;;;;;;;4997953;28;93227;-71
2022/01/06 02:49:51;;;;;;;14.02;2.20;;;;;;;;;;4997774;28;91515;-70
2022/01/06 02:52:17;;;;;;;19.08;2.80;;;;;;;;;;4996779;28;93380;-70
2022/01/06 02:54:43;;;;;;;6.72;2.00;;;;;;;;;;4997796;28;93839;-71
2022/01/06 02:57:10;;;;;;;16.75;2.47;;;;;;;;;;4996501;28;94727;-70
2022/01/06 02:59:36;;;;;;;15.20;2.22;;;;;;;;;;4997306;28;96310;-70
2022/01/06 03:02:03;;;;;;;16.20;2.55;;;;;;;;;;4997682;28;94104;-71
2022/01/06 03:04:30;;;;;;;15.18;1.75;;;;;;;;;;5001059;28;92499;-71
2022/01/06 03:06:56;;;;;;;19.63;1.88;;;;;;;;;;4997435;28;93482;-71
2022/01/06 03:09:35;;;;;;;14.52;1.65;;;;;;;;;;4997733;28;92354;-70
2022/01/06 03:12:02;;;;;;;13.13;1.60;;;;;;;;;;4997799;28;93675;-71
2022/01/06 03:14:30;;;;;;;16.70;2.33;;;;;;;;;;4998055;28;93385;-71
2022/01/06 03:16:56;;;;;;;14.23;2.25;;;;;;;;;;4997245;28;92389;-71
2022/01/06 03:19:23;;;;;;;8.68;1.85;;;;;;;;;;4996697;28;94254;-72
2022/01/06 03:21:49;;;;;;;13.10;1.88;;;;;;;;;;4995482;28;95129;-70
2022/01/06 03:24:16;;;;;;;12.85;2.55;;;;;;;;;;4997631;28;92408;-71
2022/01/06 03:26:42;;;;;;;15.85;2.60;;;;;;;;;;5000087;28;93429;-71
2022/01/06 03:29:08;;;;;;;11.68;1.92;;;;;;;;;;4997661;28;92342;-71
2022/01/06 03:31:35;;;;;;;19.40;2.55;;;;;;;;;;4997528;28;93583;-71
2022/01/06 03:34:01;;;;;;;8.55;1.95;;;;;;;;;;4996892;28;93639;-71
2022/01/06 03:36:28;;;;;;;14.13;2.10;;;;;;;;;;4997168;28;92370;-70
2022/01/06 03:38:54;;;;;;;14.48;2.13;;;;;;;;;;4997981;28;93518;-71
2022/01/06 03:41:20;;;;;;;11.57;2.08;;;;;;;;;;4997235;28;93721;-71
2022/01/06 03:43:47;;;;;;;11.23;2.63;;;;;;;;;;4997388;28;92374;-71
2022/01/06 03:46:13;;;;;;;14.80;2.10;;;;;;;;;;4998740;28;94795;-71
2022/01/06 03:48:40;;;;;;;16.60;2.53;;;;;;;;;;4997148;28;92265;-71
2022/01/06 03:51:06;;;;;;;16.48;1.88;;;;;;;;;;4996812;28;93471;-71
2022/01/06 03:53:33;;;;;;;11.35;2.03;;;;;;;;;;4996901;28;93727;-71
2022/01/06 03:55:59;;;;;;;17.88;2.22;;;;;;;;;;4997133;28;92264;-71
2022/01/06 03:58:26;;;;;;;11.90;2.33;;;;;;;;;;4997166;28;93875;-72
2022/01/06 04:00:52;;;;;;;12.63;1.73;;;;;;;;;;4997028;28;92708;-71
2022/01/06 04:03:19;;;;;;;12.38;1.83;;;;;;;;;;4997257;28;91612;-70
2022/01/06 04:05:45;;;;;;;14.18;1.98;;;;;;;;;;4997169;28;92802;-71
2022/01/06 04:08:11;;;;;;;19.30;2.50;;;;;;;;;;4999867;28;93731;-71
2022/01/06 04:10:38;;;;;;;11.57;1.52;;;;;;;;;;4995692;28;94831;-71
2022/01/06 04:13:04;;;;;;;17.83;2.40;;;;;;;;;;5000046;28;93937;-71
2022/01/06 04:15:30;;;;;;;16.55;1.58;;;;;;;;;;5000828;28;92391;-71
2022/01/06 04:17:57;;;;;;;16.00;2.05;;;;;;;;;;4999644;28;93234;-71
2022/01/06 04:20:23;;;;;;;14.60;2.10;;;;;;;;;;5000287;28;93076;-71
2022/01/06 04:22:49;;;;;;;15.75;2.53;;;;;;;;;;5000582;28;92343;-70
2022/01/06 04:25:16;;;;;;;13.60;1.90;;;;;;;;;;5000353;28;92928;-70
2022/01/06 04:27:42;;;;;;;23.60;2.47;;;;;;;;;;5000479;28;92355;-71
2022/01/06 04:30:09;;;;;;;8.95;1.70;;;;;;;;;;5005036;28;92386;-70
2022/01/06 04:32:36;;;;;;;19.85;2.72;;;;;;;;;;5004255;28;93655;-70
2022/01/06 04:35:03;;;;;;;13.32;2.50;;;;;;;;;;5000454;28;94922;-71
2022/01/06 04:37:29;;;;;;;11.50;2.10;;;;;;;;;;5004446;28;95899;-71
2022/01/06 04:39:56;;;;;;;11.00;2.22;;;;;;;;;;5003374;28;93675;-70
2022/01/06 04:42:22;;;;;;;18.63;2.45;;;;;;;;;;5000479;28;92333;-71
2022/01/06 04:44:49;;;;;;;12.63;2.45;;;;;;;;;;5000237;28;93444;-70
2022/01/06 04:47:15;;;;;;;13.38;1.90;;;;;;;;;;4999387;28;93879;-70
2022/01/06 04:49:41;;;;;;;20.33;2.47;;;;;;;;;;5000064;28;92340;-71
2022/01/06 04:52:07;;;;;;;12.75;2.00;;;;;;;;;;5003352;28;93402;-71
2022/01/06 04:54:34;;;;;;;13.23;2.28;;;;;;;;;;4999903;28;92346;-70
2022/01/06 04:57:01;;;;;;;18.73;1.90;;;;;;;;;;5000033;28;92948;-70
2022/01/06 04:59:27;;;;;;;26.08;2.63;;;;;;;;;;4998129;28;95384;-71
2022/01/06 05:01:54;;;;;;;10.82;1.50;;;;;;;;;;4999271;28;92323;-71
2022/01/06 05:04:20;;;;;;;17.55;2.28;;;;;;;;;;4999844;28;93692;-71
2022/01/06 05:06:47;;;;;;;10.95;1.60;;;;;;;;;;4999671;28;93604;-71
2022/01/06 05:09:15;;;;;;;11.90;2.13;;;;;;;;;;4999864;28;92439;-71
2022/01/06 05:11:41;;;;;;;21.40;3.00;;;;;;;;;;4999702;28;93959;-72
2022/01/06 05:14:07;;;;;;;10.60;1.63;;;;;;;;;;5002155;28;93918;-71
2022/01/06 05:16:34;;;;;;;15.45;2.25;;;;;;;;;;4999517;28;93456;-71
2022/01/06 05:19:00;;;;;;;17.95;2.45;;;;;;;;;;4999338;28;93580;-70
2022/01/06 05:21:29;;;;;;;26.10;2.75;;;;;;;;;;4999569;28;92396;-70
2022/01/06 05:23:56;;;;;;;15.45;2.50;;;;;;;;;;4997793;28;94648;-71
2022/01/06 05:26:23;;;;;;;12.88;2.40;;;;;;;;;;4999214;28;93131;-71
2022/01/06 05:28:49;;;;;;;16.88;2.20;;;;;;;;;;4997785;28;93295;-71
2022/01/06 05:31:16;;;;;;;12.77;1.95;;;;;;;;;;4999421;28;92880;-71
2022/01/06 05:33:42;;;;;;;22.77;2.60;;;;;;;;;;4999074;28;93677;-71
2022/01/06 05:36:09;;;;;;;28.10;2.80;;;;;;;;;;5002113;28;92140;-71
2022/01/06 05:38:35;;;;;;;20.10;2.30;;;;;;;;;;4999155;28;92819;-71
2022/01/06 05:41:02;;;;;;;15.57;2.75;;;;;;;;;;4999911;28;91607;-71
2022/01/06 05:43:28;;;;;;;33.05;2.95;;;;;;;;;;4998910;28;92917;-72
2022/01/06 05:45:55;;;;;;;18.02;2.22;;;;;;;;;;4999156;28;93470;-71
2022/01/06 05:48:22;;;;;;;14.85;1.98;;;;;;;;;;4997379;28;94802;-71
2022/01/06 05:50:48;;;;;;;18.58;2.92;;;;;;;;;;4998841;28;95849;-72
2022/01/06 05:53:15;;;;;;;20.60;1.95;;;;;;;;;;4998610;28;93568;-72
2022/01/06 05:55:42;;;;;;;15.48;2.20;;;;;;;;;;5002112;28;92262;-71
2022/01/06 05:58:08;;;;;;;10.98;2.33;;;;;;;;;;4998325;28;93587;-70
2022/01/06 06:00:34;;;;;;;23.58;2.25;;;;;;;;;;4999121;28;93229;-71
2022/01/06 06:03:01;;;;;;;14.50;1.65;;;;;;;;;;4999074;28;93455;-71
2022/01/06 06:05:27;;;;;;;13.52;2.10;;;;;;;;;;4999373;28;93215;-72
2022/01/06 06:07:54;;;;;;;14.07;2.08;;;;;;;;;;4998959;28;92222;-71
2022/01/06 06:10:20;;;;;;;14.55;2.05;;;;;;;;;;4998740;28;93171;-70
2022/01/06 06:12:52;;;;;;;20.58;2.83;;;;;;;;;;4996417;28;95606;-72
2022/01/06 06:15:21;;;;;;;18.02;2.33;;;;;;;;;;4998743;28;92299;-71
2022/01/06 06:17:48;;;;;;;31.05;3.55;;;;;;;;;;5001356;28;93607;-71
2022/01/06 06:20:14;;;;;;;13.45;2.00;;;;;;;;;;4998688;28;92802;-71
2022/01/06 06:22:41;;;;;;;13.93;3.65;;;;;;;;;;4998805;28;93118;-72
2022/01/06 06:25:07;;;;;;;22.23;2.30;;;;;;;;;;4998085;28;93352;-72
2022/01/06 06:27:34;;;;;;;14.43;2.05;;;;;;;;;;4998555;28;92311;-71
2022/01/06 06:30:00;;;;;;;16.35;2.47;;;;;;;;;;4999035;28;93699;-71
2022/01/06 06:32:28;;;;;;;14.43;2.45;;;;;;;;;;4998225;28;93700;-71
2022/01/06 06:34:55;;;;;;;19.55;2.38;;;;;;;;;;4996092;28;92443;-71
2022/01/06 06:37:22;;;;;;;28.33;2.13;;;;;;;;;;4996914;28;94679;-72
2022/01/06 06:39:48;;;;;;;18.48;2.60;;;;;;;;;;5000826;28;93947;-71
2022/01/06 06:42:14;;;;;;;18.27;2.70;;;;;;;;;;4998584;28;92947;-70
2022/01/06 06:44:41;;;;;;;17.27;2.63;;;;;;;;;;4998121;28;93594;-71
2022/01/06 06:47:07;;;;;;;15.63;2.20;;;;;;;;;;4998260;28;92358;-71
2022/01/06 06:49:34;;;;;;;17.02;3.40;;;;;;;;;;4998071;28;93040;-71
2022/01/06 06:52:00;;;;;;;13.45;2.45;;;;;;;;;;4997935;28;92327;-71
2022/01/06 06:54:27;;;;;;;21.15;2.63;;;;;;;;;;4998218;28;91518;-71
2022/01/06 06:56:53;;;;;;;21.70;2.55;;;;;;;;;;4998238;28;92453;-71
2022/01/06 06:59:21;;;;;;;11.18;2.53;;;;;;;;;;4997990;28;93646;-71
2022/01/06 07:01:47;;;;;;;20.13;2.45;;;;;;;;;;4999607;28;94839;-71
2022/01/06 07:04:14;;;;;;;11.70;3.10;;;;;;;;;;4997601;28;93679;-72
2022/01/06 07:07:00;;;;;;;30.15;5.30;;;;;;;;;;4997458;28;92409;-72
2022/01/06 07:09:26;;;;;;;15.57;4.65;;;;;;;;;;4997825;28;93457;-70
2022/01/06 07:11:53;;;;;;;20.83;5.18;;;;;;;;;;4997648;28;93638;-71
2022/01/06 07:14:19;;;;;;;17.95;4.88;;;;;;;;;;4997578;28;92400;-72
2022/01/06 07:16:45;;;;;;;20.60;4.43;;;;;;;;;;4997395;28;93544;-73
2022/01/06 07:19:12;;;;;;;20.67;4.40;;;;;;;;;;4997990;28;92931;-71
2022/01/06 07:21:38;;;;;;;17.92;4.20;;;;;;;;;;4997336;28;93574;-72
2022/01/06 07:24:05;;;;;;;23.48;4.03;;;;;;;;;;5000606;28;93435;-73
2022/01/06 07:26:33;;;;;;;11.73;3.42;;;;;;;;;;4995690;28;94800;-72
2022/01/06 07:28:59;;;;;;;29.10;4.55;;;;;;;;;;4997388;28;95747;-72
2022/01/06 07:31:25;;;;;;;9.40;3.08;;;;;;;;;;4997362;28;93730;-72
2022/01/06 07:33:52;;;;;;;18.10;4.38;;;;;;;;;;4997367;28;93760;-72
2022/01/06 07:36:18;;;;;;;18.63;3.70;;;;;;;;;;4997028;28;93616;-71
2022/01/06 07:38:45;;;;;;;12.32;3.45;;;;;;;;;;4997116;28;93704;-73
2022/01/06 07:41:11;;;;;;;19.63;3.13;;;;;;;;;;4996095;28;92383;-73
2022/01/06 07:43:37;;;;;;;21.00;3.63;;;;;;;;;;5000470;28;93426;-72
2022/01/06 07:46:04;;;;;;;22.08;3.55;;;;;;;;;;4997123;28;92512;-73
2022/01/06 07:48:47;;;;;;;17.60;4.72;;;;;;;;;;4997080;28;92318;-74
2022/01/06 07:51:15;;;;;;;16.98;5.15;;;;;;;;;;4995351;28;96092;-75
2022/01/06 07:53:41;;;;;;;12.07;3.97;;;;;;;;;;4997109;28;92206;-75
2022/01/06 07:56:08;;;;;;;8.93;3.08;;;;;;;;;;4997174;28;93368;-74
2022/01/06 07:58:34;;;;;;;9.95;3.38;;;;;;;;;;4996982;28;93515;-72
2022/01/06 08:01:01;;;;;;;15.73;4.18;;;;;;;;;;4996718;28;92317;-72
2022/01/06 08:03:28;;;;;;;10.93;3.65;;;;;;;;;;4996480;28;93796;-72
2022/01/06 08:05:54;;;;;;;17.20;3.15;;;;;;;;;;4999769;28;93709;-73
2022/01/06 08:08:20;;;;;;;22.92;3.67;;;;;;;;;;4997381;28;92468;-72
2022/01/06 08:10:47;;;;;;;7.22;2.83;;;;;;;;;;4996817;28;93556;-72
2022/01/06 08:13:13;;;;;;;13.77;2.55;;;;;;;;;;4995895;28;93544;-72
2022/01/06 08:15:39;;;;;;;14.38;2.80;;;;;;;;;;4995023;28;94792;-74
2022/01/06 08:18:06;;;;;;;13.75;2.97;;;;;;;;;;4996509;28;93441;-72
2022/01/06 08:20:35;;;;;;;9.60;2.63;;;;;;;;;;4996843;28;92410;-72
2022/01/06 08:23:02;;;;;;;16.58;3.40;;;;;;;;;;4996907;28;93505;-72
2022/01/06 08:25:29;;;;;;;12.60;3.13;;;;;;;;;;4996904;28;92259;-73
2022/01/06 08:27:55;;;;;;;14.45;4.40;;;;;;;;;;4998582;28;92418;-72
2022/01/06 08:30:22;;;;;;;27.50;4.63;;;;;;;;;;4996119;28;93998;-72
2022/01/06 08:32:48;;;;;;;17.90;4.82;;;;;;;;;;4997219;28;91469;-72
2022/01/06 08:35:14;;;;;;;18.38;5.78;;;;;;;;;;4996575;28;93023;-72
2022/01/06 08:37:41;;;;;;;16.85;6.47;;;;;;;;;;4996472;28;93530;-72
2022/01/06 08:40:08;;;;;;;24.02;7.95;;;;;;;;;;4995348;28;94606;-72
2022/01/06 08:42:34;;;;;;;25.00;9.45;;;;;;;;;;4996572;28;95260;-72
2022/01/06 08:45:01;;;;;;;30.67;9.10;;;;;;;;;;4995887;28;93213;-72
2022/01/06 08:47:29;;;;;;;24.15;7.72;;;;;;;;;;4996765;28;92231;-73
2022/01/06 08:49:55;;;;;;;8.27;3.85;;;;;;;;;;4999218;28;93472;-73
2022/01/06 08:52:22;;;;;;;17.25;4.20;;;;;;;;;;4997837;28;92338;-74
2022/01/06 08:54:49;;;;;;;10.85;4.45;;;;;;;;;;4996858;28;93479;-73
2022/01/06 08:57:15;;;;;;;12.15;4.75;;;;;;;;;;5004137;28;93281;-73
2022/01/06 08:59:41;;;;;;;14.70;4.25;;;;;;;;;;5003559;28;92145;-72
2022/01/06 09:02:09;;;;;;;14.05;4.78;;;;;;;;;;5000153;28;93368;-72
2022/01/06 09:04:35;;;;;;;19.10;4.60;;;;;;;;;;4997814;28;97572;-72
2022/01/06 09:07:03;;;;;;;11.07;3.97;;;;;;;;;;4980677;28;92706;-72
2022/01/06 09:09:29;;;;;;;14.15;5.88;;;;;;;;;;4999942;28;92744;-70
2022/01/06 09:11:55;;;;;;;18.95;8.43;;;;;;;;;;5001341;28;93049;-72
2022/01/06 09:14:22;;;;;;;23.08;7.53;;;;;;;;;;4998243;28;94815;-72
2022/01/06 09:16:50;;;;;;;16.83;7.55;;;;;;;;;;4999297;28;93299;-71
2022/01/06 09:19:16;;;;;;;22.17;7.05;;;;;;;;;;5001795;28;92573;-72
2022/01/06 09:21:43;;;;;;;17.35;6.15;;;;;;;;;;5019786;28;93446;-72
2022/01/06 09:24:09;;;;;;;20.50;6.63;;;;;;;;;;5019500;28;93688;-72
2022/01/06 09:26:37;;;;;;;13.25;6.00;;;;;;;;;;5019073;28;92331;-72
2022/01/06 09:29:04;;;;;;;14.55;5.45;;;;;;;;;;5017833;28;94624;-72
2022/01/06 09:31:32;;;;;;;16.27;5.55;;;;;;;;;;5019246;28;93535;-72
2022/01/06 09:33:59;;;;;;;10.15;5.00;;;;;;;;;;5021129;28;92379;-72
2022/01/06 09:36:27;;;;;;;17.33;5.38;;;;;;;;;;5018326;28;93402;-71
2022/01/06 09:38:55;;;;;;;18.80;5.57;;;;;;;;;;5019324;28;92230;-73
2022/01/06 09:41:22;;;;;;;36.60;6.25;;;;;;;;;;5018319;28;92623;-72
2022/01/06 09:43:52;;;;;;;23.75;6.13;;;;;;;;;;5019109;28;93398;-72
2022/01/06 09:46:20;;;;;;;18.85;5.38;;;;;;;;;;5019704;28;92378;-74
2022/01/06 09:48:48;;;;;;;39.28;5.63;;;;;;;;;;5019197;28;92298;-73
2022/01/06 09:51:16;;;;;;;40.33;5.25;;;;;;;;;;5018778;28;93422;-72
2022/01/06 09:53:42;;;;;;;16.25;4.97;;;;;;;;;;5021144;28;94582;-72
2022/01/06 09:56:09;;;;;;;28.30;5.57;;;;;;;;;;5018530;28;93975;-73
2022/01/06 09:58:36;;;;;;;20.65;5.10;;;;;;;;;;5019134;28;92370;-72
2022/01/06 10:01:02;;;;;;;13.73;5.07;;;;;;;;;;5019042;28;93383;-71
2022/01/06 10:03:33;;;;;;;18.10;5.05;;;;;;;;;;5018798;28;93347;-74
2022/01/06 10:06:18;;;;;;;13.38;4.32;;;;;;;;;;5019087;28;92337;-73
2022/01/06 10:09:04;;;;;;;16.08;5.03;;;;;;;;;;5017839;28;93420;-72
2022/01/06 10:11:32;;;;;;;16.95;4.93;;;;;;;;;;5019039;28;92081;-73
2022/01/06 10:14:01;;;;;;;12.48;4.70;;;;;;;;;;5018777;28;92314;-75
2022/01/06 10:16:31;;;;;;;20.05;4.80;;;;;;;;;;5021127;28;93037;-74
2022/01/06 10:18:59;;;;;;;27.73;5.72;;;;;;;;;;5016613;28;94665;-75
2022/01/06 10:21:29;;;;;;;16.00;5.00;;;;;;;;;;5018378;28;95830;-74
2022/01/06 10:23:59;;;;;;;17.27;5.38;;;;;;;;;;5017122;28;94135;-75
2022/01/06 10:26:29;;;;;;;18.75;4.88;;;;;;;;;;5018555;28;92779;-74
2022/01/06 10:28:55;;;;;;;20.50;4.53;;;;;;;;;;5018492;28;93505;-74
2022/01/06 10:31:23;;;;;;;14.55;3.63;;;;;;;;;;5016595;28;96292;-74
2022/01/06 10:33:49;;;;;;;17.60;3.30;;;;;;;;;;5018585;28;92189;-75
2022/01/06 10:36:16;;;;;;;29.13;4.18;;;;;;;;;;5018935;28;93174;-74
2022/01/06 10:38:51;;;;;;;22.00;3.78;;;;;;;;;;5019856;28;93734;-74
2022/01/06 10:41:17;;;;;;;29.83;3.58;;;;;;;;;;5018581;28;93425;-75
2022/01/06 10:43:54;;;;;;;10.98;3.30;;;;;;;;;;5016358;28;95084;-74
2022/01/06 10:46:28;;;;;;;14.10;3.05;;;;;;;;;;5018222;28;92328;-74
2022/01/06 10:48:58;;;;;;;13.05;2.80;;;;;;;;;;5018247;28;93353;-74
2022/01/06 10:51:44;;;;;;;16.02;3.28;;;;;;;;;;5018048;28;93173;-74
2022/01/06 10:54:12;;;;;;;13.25;3.00;;;;;;;;;;5017848;28;92467;-75
2022/01/06 10:56:38;;;;;;;13.25;2.70;;;;;;;;;;5017759;28;93368;-73
2022/01/06 10:59:05;;;;;;;15.93;3.50;;;;;;;;;;5017553;28;93714;-74
2022/01/06 11:01:32;;;;;;;8.23;2.50;;;;;;;;;;5021615;28;91460;-73
2022/01/06 11:03:58;;;;;;;12.85;3.53;;;;;;;;;;5017969;28;93195;-74
2022/01/06 11:06:25;;;;;;;19.42;3.10;;;;;;;;;;5018309;28;93082;-73
2022/01/06 11:08:52;;;;;;;12.80;2.95;;;;;;;;;;5015861;28;94587;-73
2022/01/06 11:11:31;;;;;;;12.13;3.85;;;;;;;;;;5016631;28;93581;-72
2022/01/06 11:13:58;;;;;;;16.50;3.17;;;;;;;;;;5017641;28;92387;-73
2022/01/06 11:16:24;;;;;;;13.55;3.38;;;;;;;;;;4999711;28;95835;-73
2022/01/06 11:18:54;;;;;;;12.63;3.45;;;;;;;;;;5017436;28;93515;-75
2022/01/06 11:21:23;;;;;;;16.33;3.80;;;;;;;;;;5017452;28;92363;-73
2022/01/06 11:24:00;;;;;;;14.90;3.22;;;;;;;;;;5020516;28;93396;-72
2022/01/06 11:26:26;;;;;;;12.52;3.63;;;;;;;;;;5018010;28;91695;-73
2022/01/06 11:28:59;;;;;;;9.13;2.95;;;;;;;;;;5016820;28;92918;-72
2022/01/06 11:31:27;;;;;;;13.27;3.50;;;;;;;;;;5016198;28;96471;-72
2022/01/06 11:33:56;;;;;;;15.48;3.70;;;;;;;;;;5015648;28;94702;-74
2022/01/06 11:36:35;;;;;;;17.05;3.30;;;;;;;;;;5017434;28;95311;-70
2022/01/06 11:39:05;;;;;;;10.75;3.25;;;;;;;;;;5017580;28;93538;-71
2022/01/06 11:41:35;;;;;;;11.43;3.38;;;;;;;;;;5017621;28;92391;-71
2022/01/06 11:44:02;;;;;;;19.63;3.30;;;;;;;;;;5017401;28;93301;-71
2022/01/06 11:46:43;;;;;;;13.60;3.28;;;;;;;;;;5020229;28;93405;-72
2022/01/06 11:49:09;;;;;;;16.17;3.13;;;;;;;;;;5017732;28;92907;-71
2022/01/06 11:51:37;;;;;;;17.83;3.42;;;;;;;;;;5017550;28;92808;-71
2022/01/06 11:54:16;;;;;;;13.02;3.58;;;;;;;;;;5017349;28;92392;-72
2022/01/06 11:56:48;;;;;;;14.48;5.03;;;;;;;;;;5017113;28;93471;-71
2022/01/06 11:59:14;;;;;;;;;;;;;;;;;;5015593;28;95739;-72
2022/01/06 12:01:48;;;;;;;13.27;3.40;;;;;;;;;;5016209;28;116648;-71
2022/01/06 12:04:15;;;;;;;12.43;3.05;;;;;;;;;;5015967;28;93327;-72
2022/01/06 12:06:42;;;;;;;17.55;5.40;;;;;;;;;;5019983;28;92851;-72
2022/01/06 12:09:16;;;;;;;19.27;4.20;;;;;;;;;;5017094;28;93367;-71
2022/01/06 12:11:42;;;;;;;104.85;55.03;;;;;;;;;;5015402;28;93573;-73
2022/01/06 12:14:09;;;;;;;22.48;5.85;;;;;;;;;;5014994;28;92390;-71
2022/01/06 12:16:37;;;;;;;13.18;3.72;;;;;;;;;;5016956;28;93654;-71
2022/01/06 12:19:24;;;;;;;13.88;3.78;;;;;;;;;;5016693;28;93642;-71
2022/01/06 12:21:52;;;;;;;17.33;3.10;;;;;;;;;;5015642;28;93537;-70
2022/01/06 12:24:19;;;;;;;15.75;3.20;;;;;;;;;;5015426;28;94744;-72
2022/01/06 12:26:46;;;;;;;12.90;3.65;;;;;;;;;;5016791;28;93274;-72
2022/01/06 12:29:14;;;;;;;8.98;3.08;;;;;;;;;;5018617;28;92226;-70
2022/01/06 12:31:42;;;;;;;12.52;2.75;;;;;;;;;;5016934;28;93735;-71
2022/01/06 12:34:10;;;;;;;8.32;2.58;;;;;;;;;;5019883;28;92338;-71
2022/01/06 12:36:37;;;;;;;15.60;3.05;;;;;;;;;;5019720;28;92834;-73
2022/01/06 12:39:06;;;;;;;15.57;2.53;;;;;;;;;;5020102;28;92685;-70
2022/01/06 12:41:35;;;;;;;14.55;3.15;;;;;;;;;;5020928;28;91513;-73
2022/01/06 12:44:01;;;;;;;19.17;3.10;;;;;;;;;;5019311;28;92855;-72
2022/01/06 12:46:32;;;;;;;14.75;2.63;;;;;;;;;;5020332;28;93023;-73
2022/01/06 12:48:59;;;;;;;14.53;2.50;;;;;;;;;;5017181;28;94746;-72
2022/01/06 12:51:28;;;;;;;11.40;3.25;;;;;;;;;;5022775;28;95668;-72
2022/01/06 12:54:04;;;;;;;14.77;2.80;;;;;;;;;;5017672;28;93429;-73
2022/01/06 12:56:32;;;;;;;15.65;2.35;;;;;;;;;;5012600;28;93669;-71
2022/01/06 12:58:59;;;;;;;11.88;2.53;;;;;;;;;;5024887;28;93003;-73
2022/01/06 13:01:27;;;;;;;19.33;2.25;;;;;;;;;;5022679;28;92318;-73
2022/01/06 13:03:54;;;;;;;11.23;2.70;;;;;;;;;;5023267;28;93657;-72
2022/01/06 13:06:27;;;;;;;10.77;2.15;;;;;;;;;;5022663;28;93106;-73
2022/01/06 13:08:56;;;;;;;10.70;2.30;;;;;;;;;;5018732;28;92387;-72
2022/01/06 13:11:29;;;;;;;12.68;2.65;;;;;;;;;;5019740;28;93596;-72
2022/01/06 13:13:58;;;;;;;16.20;3.03;;;;;;;;;;5020914;28;96042;-72
2022/01/06 13:16:26;;;;;;;11.18;2.35;;;;;;;;;;5018660;28;94347;-75
2022/01/06 13:18:57;;;;;;;14.70;2.83;;;;;;;;;;5019798;28;93007;-74
2022/01/06 13:21:27;;;;;;;10.55;3.58;;;;;;;;;;5018480;28;92416;-72
2022/01/06 13:23:55;;;;;;;11.68;2.05;;;;;;;;;;5019790;28;93938;-71
2022/01/06 13:26:22;;;;;;;9.65;2.60;;;;;;;;;;5018748;28;93269;-72
2022/01/06 13:28:56;;;;;;;5.60;1.95;;;;;;;;;;5019069;28;92903;-71
2022/01/06 13:31:23;;;;;;;10.65;2.00;;;;;;;;;;5019902;28;93199;-72
2022/01/06 13:33:54;;;;;;;8.50;2.47;;;;;;;;;;5019326;28;93280;-72
2022/01/06 13:36:28;;;;;;;9.07;2.17;;;;;;;;;;5022386;28;92283;-72
2022/01/06 13:39:03;;;;;;;9.32;2.20;;;;;;;;;;5016181;28;98483;-71
2022/01/06 13:41:30;;;;;;;11.23;2.28;;;;;;;;;;5018284;28;92422;-72
2022/01/06 13:43:58;;;;;;;14.05;2.40;;;;;;;;;;5018976;28;92439;-71
2022/01/06 13:46:37;;;;;;;9.90;2.45;;;;;;;;;;5019088;28;93723;-72
2022/01/06 13:51:51;;;;;;;10.00;1.98;;;;;;;;;;5018858;28;93467;-72
2022/01/06 13:54:19;;;;;;;7.57;2.00;;;;;;;;;;5018874;28;93636;-73
2022/01/06 13:56:45;;;;;;;14.25;2.60;;;;;;;;;;5019554;28;91596;-72
2022/01/06 13:59:14;;;;;;;18.73;2.65;;;;;;;;;;5021988;28;92737;-72
2022/01/06 14:01:42;;;;;;;10.93;2.47;;;;;;;;;;5018882;28;92331;-71
2022/01/06 14:04:17;;;;;;;8.27;1.75;;;;;;;;;;5016887;28;94574;-72
2022/01/06 14:06:43;;;;;;;14.15;2.10;;;;;;;;;;5019098;28;93283;-73
2022/01/06 14:09:11;;;;;;;11.43;2.05;;;;;;;;;;5019004;28;92332;-71
2022/01/06 14:11:37;;;;;;;11.07;1.98;;;;;;;;;;5018699;28;94126;-72
2022/01/06 14:14:04;;;;;;;15.00;2.35;;;;;;;;;;5018501;28;93752;-70
2022/01/06 14:16:30;;;;;;;9.43;2.20;;;;;;;;;;5018473;28;92364;-73
2022/01/06 14:18:56;;;;;;;9.80;1.88;;;;;;;;;;5021065;28;92724;-71
2022/01/06 14:21:23;;;;;;;9.52;2.05;;;;;;;;;;5019156;28;91455;-70
2022/01/06 14:23:49;;;;;;;9.77;3.25;;;;;;;;;;5018739;28;92375;-71
2022/01/06 14:26:15;;;;;;;10.00;2.75;;;;;;;;;;5018405;28;92977;-72
2022/01/06 14:28:42;;;;;;;12.00;2.47;;;;;;;;;;5016978;28;94817;-72
2022/01/06 14:31:10;;;;;;;8.73;2.65;;;;;;;;;;5018236;28;95884;-72
2022/01/06 14:33:37;;;;;;;9.55;2.80;;;;;;;;;;4998927;28;93366;-72
2022/01/06 14:36:04;;;;;;;10.18;2.58;;;;;;;;;;5018637;28;92338;-72
2022/01/06 14:38:41;;;;;;;14.63;3.28;;;;;;;;;;5018297;28;93507;-71
2022/01/06 14:41:08;;;;;;;14.30;2.65;;;;;;;;;;5021445;28;93076;-71
2022/01/06 14:43:35;;;;;;;13.57;4.07;;;;;;;;;;5018372;28;93251;-70
2022/01/06 14:46:02;;;;;;;13.18;2.70;;;;;;;;;;5018220;28;91854;-71
2022/01/06 14:48:28;;;;;;;8.18;2.40;;;;;;;;;;5018452;28;92371;-72